Gilbert Plains, Canada
Current Conditions -  °F | °C
As of 11:47 AM on Monday 22 Dec 2014 (Local Time) from CYDN Reporting Station
Moderate Snow Moderate Snow  
Wind Chill: 21°   Ceiling: 400
Heat Index: 28°   Visibility: 0.37mi
Dew Point: 28°   Wind: 7mph
Humidity: 100%   Direction: 50°NE
Pressure: 29.68"   Gusts: NA
Location:  51.13°N, 100.48°W
Report Text: CYDN 221747Z AUTO 05006KT 3/8SM SN BKN004 OVC009 M02/M02 A2968 RMK SLP068
Loading
Personal Weather Stations






























Interactive Weather Map New forecast layout! Learn more

10-Day Weather Forecast

Advertisements
Track Severe Weather on mobile